sensor_id;sensor_type;location;lat;lon;timestamp;pressure;altitude;pressure_sealevel;temperature;humidity
81931;BME280;71395;43.488;1.472;2023-07-09T10:05:21;100191.13;;;30.26;47.44
81931;BME280;71395;43.488;1.472;2023-07-09T10:08:03;100200.22;;;30.26;46.40
81931;BME280;71395;43.488;1.472;2023-07-09T10:10:32;100188.72;;;30.21;46.96
81931;BME280;71395;43.488;1.472;2023-07-09T10:13:15;100202.97;;;30.26;46.64
81931;BME280;71395;43.488;1.472;2023-07-09T10:23:54;100199.81;;;30.24;46.88
81931;BME280;71395;43.488;1.472;2023-07-09T10:26:34;100196.66;;;30.26;47.64
81931;BME280;71395;43.488;1.472;2023-07-09T10:32:15;100200.63;;;30.25;47.47
81931;BME280;71395;43.488;1.472;2023-07-09T10:34:57;100210.88;;;30.28;47.30
81931;BME280;71395;43.488;1.472;2023-07-09T10:39:58;100207.31;;;30.27;47.31
81931;BME280;71395;43.488;1.472;2023-07-09T10:42:28;100207.75;;;30.29;46.96
81931;BME280;71395;43.488;1.472;2023-07-09T10:45:08;100211.31;;;30.30;46.91
81931;BME280;71395;43.488;1.472;2023-07-09T10:47:38;100223.16;;;30.30;47.95
81931;BME280;71395;43.488;1.472;2023-07-09T10:50:14;100206.53;;;30.27;47.44
81931;BME280;71395;43.488;1.472;2023-07-09T10:52:44;100218.81;;;30.29;47.47
81931;BME280;71395;43.488;1.472;2023-07-09T10:55:26;100218.03;;;30.32;47.65
81931;BME280;71395;43.488;1.472;2023-07-09T11:00:23;100203.03;;;30.33;47.21
81931;BME280;71395;43.488;1.472;2023-07-09T11:02:58;100208.56;;;30.33;47.65
81931;BME280;71395;43.488;1.472;2023-07-09T11:05:24;100191.53;;;30.24;47.85
81931;BME280;71395;43.488;1.472;2023-07-09T11:08:14;100208.19;;;30.35;47.20
81931;BME280;71395;43.488;1.472;2023-07-09T11:10:46;100212.50;;;30.32;47.35
81931;BME280;71395;43.488;1.472;2023-07-09T11:16:05;100201.84;;;30.34;47.58
81931;BME280;71395;43.488;1.472;2023-07-09T11:18:33;100198.31;;;30.34;47.36
81931;BME280;71395;43.488;1.472;2023-07-09T11:21:14;100207.78;;;30.36;48.12
81931;BME280;71395;43.488;1.472;2023-07-09T11:26:14;100205.00;;;30.36;47.69
81931;BME280;71395;43.488;1.472;2023-07-09T11:28:45;100190.38;;;30.32;48.34
81931;BME280;71395;43.488;1.472;2023-07-09T11:31:24;100199.09;;;30.38;47.56
81931;BME280;71395;43.488;1.472;2023-07-09T11:34:10;100203.81;;;30.37;47.65
81931;BME280;71395;43.488;1.472;2023-07-09T11:36:58;100194.75;;;30.33;48.02
81931;BME280;71395;43.488;1.472;2023-07-09T11:41:58;100199.91;;;30.38;48.39
81931;BME280;71395;43.488;1.472;2023-07-09T11:44:29;100196.75;;;30.40;47.57
81931;BME280;71395;43.488;1.472;2023-07-09T11:50:00;100188.84;;;30.38;48.12
81931;BME280;71395;43.488;1.472;2023-07-09T11:54:55;100184.47;;;30.34;47.76
81931;BME280;71395;43.488;1.472;2023-07-09T11:57:21;100186.47;;;30.41;47.64
81931;BME280;71395;43.488;1.472;2023-07-09T11:59:46;100177.75;;;30.35;47.97
81931;BME280;71395;43.488;1.472;2023-07-09T12:02:18;100181.31;;;30.43;48.34
81931;BME280;71395;43.488;1.472;2023-07-09T12:04:47;100183.31;;;30.42;48.65
81931;BME280;71395;43.488;1.472;2023-07-09T12:07:14;100178.56;;;30.43;47.79
81931;BME280;71395;43.488;1.472;2023-07-09T12:09:49;100175.78;;;30.43;48.20
81931;BME280;71395;43.488;1.472;2023-07-09T12:12:20;100172.22;;;30.42;48.50
81931;BME280;71395;43.488;1.472;2023-07-09T12:14:45;100170.25;;;30.43;48.14
81931;BME280;71395;43.488;1.472;2023-07-09T12:17:11;100168.28;;;30.43;48.46
81931;BME280;71395;43.488;1.472;2023-07-09T12:19:38;100171.88;;;30.44;48.07
81931;BME280;71395;43.488;1.472;2023-07-09T12:22:08;100163.16;;;30.42;48.07
81931;BME280;71395;43.488;1.472;2023-07-09T12:24:42;100165.94;;;30.45;47.99
81931;BME280;71395;43.488;1.472;2023-07-09T12:27:21;100165.94;;;30.45;48.27
81931;BME280;71395;43.488;1.472;2023-07-09T12:29:51;100165.16;;;30.45;47.93
81931;BME280;71395;43.488;1.472;2023-07-09T12:32:17;100156.44;;;30.43;48.34
81931;BME280;71395;43.488;1.472;2023-07-09T12:34:47;100160.78;;;30.47;48.33
81931;BME280;71395;43.488;1.472;2023-07-09T12:37:14;100165.16;;;30.45;48.46
81931;BME280;71395;43.488;1.472;2023-07-09T12:39:40;100163.56;;;30.44;48.71
81931;BME280;71395;43.488;1.472;2023-07-09T12:42:15;100165.97;;;30.49;48.10
81931;BME280;71395;43.488;1.472;2023-07-09T12:44:41;100161.59;;;30.44;48.59
81931;BME280;71395;43.488;1.472;2023-07-09T12:47:13;100165.97;;;30.49;48.84
81931;BME280;71395;43.488;1.472;2023-07-09T12:49:42;100166.72;;;30.46;48.83
81931;BME280;71395;43.488;1.472;2023-07-09T12:52:19;100160.44;;;30.49;48.50
81931;BME280;71395;43.488;1.472;2023-07-09T12:54:58;100156.47;;;30.50;48.88
81931;BME280;71395;43.488;1.472;2023-07-09T12:57:25;100158.03;;;30.47;48.84
81931;BME280;71395;43.488;1.472;2023-07-09T12:59:51;100156.47;;;30.50;48.48
81931;BME280;71395;43.488;1.472;2023-07-09T13:04:49;100159.63;;;30.52;49.21
81931;BME280;71395;43.488;1.472;2023-07-09T13:07:36;100159.25;;;30.50;48.41
81931;BME280;71395;43.488;1.472;2023-07-09T13:10:40;100165.97;;;30.49;48.76
81931;BME280;71395;43.488;1.472;2023-07-09T13:13:10;100150.94;;;30.50;49.38
81931;BME280;71395;43.488;1.472;2023-07-09T13:18:05;100152.91;;;30.53;49.32
81931;BME280;71395;43.488;1.472;2023-07-09T13:20:32;100149.34;;;30.49;48.98
81931;BME280;71395;43.488;1.472;2023-07-09T13:22:59;100143.41;;;30.47;48.99
81931;BME280;71395;43.488;1.472;2023-07-09T13:25:25;100150.50;;;30.48;48.50
81931;BME280;71395;43.488;1.472;2023-07-09T13:27:50;100150.94;;;30.50;48.83
81931;BME280;71395;43.488;1.472;2023-07-09T13:30:16;100147.34;;;30.46;49.33
81931;BME280;71395;43.488;1.472;2023-07-09T13:32:42;100160.44;;;30.56;48.39
81931;BME280;71395;43.488;1.472;2023-07-09T13:35:16;100156.09;;;30.55;48.88
81931;BME280;71395;43.488;1.472;2023-07-09T13:37:43;100156.50;;;30.53;49.48
81931;BME280;71395;43.488;1.472;2023-07-09T13:40:14;100154.13;;;30.55;49.25
81931;BME280;71395;43.488;1.472;2023-07-09T13:42:41;100148.56;;;30.52;48.75
81931;BME280;71395;43.488;1.472;2023-07-09T13:45:20;100145.44;;;30.53;49.38
81931;BME280;71395;43.488;1.472;2023-07-09T13:47:48;100159.69;;;30.59;49.03
81931;BME280;71395;43.488;1.472;2023-07-09T13:50:16;100144.25;;;30.54;49.01
81931;BME280;71395;43.488;1.472;2023-07-09T13:52:42;100150.19;;;30.60;49.26
81931;BME280;71395;43.488;1.472;2023-07-09T13:55:19;100147.81;;;30.62;48.72
81931;BME280;71395;43.488;1.472;2023-07-09T13:57:46;100137.53;;;30.59;49.45
81931;BME280;71395;43.488;1.472;2023-07-09T14:00:12;100145.03;;;30.62;49.46
81931;BME280;71395;43.488;1.472;2023-07-09T14:02:38;100135.56;;;30.59;48.61
81931;BME280;71395;43.488;1.472;2023-07-09T14:05:06;100141.50;;;30.65;48.61
81931;BME280;71395;43.488;1.472;2023-07-09T14:07:37;100135.19;;;30.64;48.89
81931;BME280;71395;43.488;1.472;2023-07-09T14:10:05;100138.31;;;30.63;49.40
81931;BME280;71395;43.488;1.472;2023-07-09T14:12:32;100135.16;;;30.61;49.15
81931;BME280;71395;43.488;1.472;2023-07-09T14:14:59;100129.25;;;30.66;48.48
81931;BME280;71395;43.488;1.472;2023-07-09T14:17:26;100125.66;;;30.62;48.81
81931;BME280;71395;43.488;1.472;2023-07-09T14:19:52;100121.72;;;30.63;49.35
81931;BME280;71395;43.488;1.472;2023-07-09T14:22:28;100122.16;;;30.69;49.49
81931;BME280;71395;43.488;1.472;2023-07-09T14:24:55;100119.38;;;30.65;49.15
81931;BME280;71395;43.488;1.472;2023-07-09T14:27:20;100128.84;;;30.68;48.63
81931;BME280;71395;43.488;1.472;2023-07-09T14:29:46;100129.63;;;30.68;48.64
81931;BME280;71395;43.488;1.472;2023-07-09T14:35:09;100129.25;;;30.66;48.95
81931;BME280;71395;43.488;1.472;2023-07-09T14:37:35;100129.66;;;30.64;49.08
81931;BME280;71395;43.488;1.472;2023-07-09T14:40:01;100131.25;;;30.69;49.30
81931;BME280;71395;43.488;1.472;2023-07-09T14:42:27;100127.66;;;30.61;48.98
81931;BME280;71395;43.488;1.472;2023-07-09T14:44:52;100132.00;;;30.66;49.26
81931;BME280;71395;43.488;1.472;2023-07-09T14:47:20;100134.44;;;30.71;48.83
81931;BME280;71395;43.488;1.472;2023-07-09T14:49:47;100138.78;;;30.72;49.57
81931;BME280;71395;43.488;1.472;2023-07-09T14:52:15;100130.47;;;30.72;49.79
81931;BME280;71395;43.488;1.472;2023-07-09T14:54:43;100139.19;;;30.74;49.55
81931;BME280;71395;43.488;1.472;2023-07-09T14:57:21;100126.53;;;30.73;49.39
81931;BME280;71395;43.488;1.472;2023-07-09T14:59:50;100124.94;;;30.72;49.09
81931;BME280;71395;43.488;1.472;2023-07-09T15:02:23;100122.19;;;30.76;49.27
81931;BME280;71395;43.488;1.472;2023-07-09T15:04:50;100117.03;;;30.71;49.52
81931;BME280;71395;43.488;1.472;2023-07-09T15:07:15;100122.19;;;30.76;49.78
81931;BME280;71395;43.488;1.472;2023-07-09T15:09:41;100117.41;;;30.73;49.55
81931;BME280;71395;43.488;1.472;2023-07-09T15:12:15;100120.63;;;30.78;49.07
81931;BME280;71395;43.488;1.472;2023-07-09T15:14:41;100121.78;;;30.77;49.74
81931;BME280;71395;43.488;1.472;2023-07-09T15:17:12;100113.91;;;30.79;49.71
81931;BME280;71395;43.488;1.472;2023-07-09T15:19:37;100116.66;;;30.79;49.36
81931;BME280;71395;43.488;1.472;2023-07-09T15:22:04;100110.31;;;30.75;49.32
81931;BME280;71395;43.488;1.472;2023-07-09T15:24:32;100111.50;;;30.74;49.26
81931;BME280;71395;43.488;1.472;2023-07-09T15:26:58;100112.72;;;30.80;49.57
81931;BME280;71395;43.488;1.472;2023-07-09T15:29:26;100115.47;;;30.80;50.11
81931;BME280;71395;43.488;1.472;2023-07-09T15:31:52;100106.78;;;30.78;49.84
81931;BME280;71395;43.488;1.472;2023-07-09T15:34:18;100107.56;;;30.79;49.54
81931;BME280;71395;43.488;1.472;2023-07-09T15:36:46;100104.41;;;30.80;49.99
81931;BME280;71395;43.488;1.472;2023-07-09T15:39:13;100095.69;;;30.82;49.98
81931;BME280;71395;43.488;1.472;2023-07-09T15:41:39;100104.00;;;30.85;50.32
81931;BME280;71395;43.488;1.472;2023-07-09T15:44:09;100095.31;;;30.87;50.25
81931;BME280;71395;43.488;1.472;2023-07-09T15:46:35;100092.53;;;30.87;49.93
81931;BME280;71395;43.488;1.472;2023-07-09T15:49:00;100080.69;;;30.79;50.11
81931;BME280;71395;43.488;1.472;2023-07-09T15:51:26;100083.84;;;30.81;49.78
81931;BME280;71395;43.488;1.472;2023-07-09T15:53:52;100090.56;;;30.80;50.32
81931;BME280;71395;43.488;1.472;2023-07-09T15:56:24;100095.72;;;30.89;50.52
81931;BME280;71395;43.488;1.472;2023-07-09T15:58:52;100096.50;;;30.82;49.94
81931;BME280;71395;43.488;1.472;2023-07-09T16:01:18;100097.72;;;30.88;49.81
81931;BME280;71395;43.488;1.472;2023-07-09T16:03:49;100094.53;;;30.86;50.35
81931;BME280;71395;43.488;1.472;2023-07-09T16:06:16;100085.41;;;30.82;50.35
81931;BME280;71395;43.488;1.472;2023-07-09T16:08:42;100082.66;;;30.82;50.57
81931;BME280;71395;43.488;1.472;2023-07-09T16:11:16;100092.94;;;30.93;50.66
81931;BME280;71395;43.488;1.472;2023-07-09T16:13:43;100085.44;;;30.89;50.43
81931;BME280;71395;43.488;1.472;2023-07-09T16:16:13;100083.44;;;30.86;50.27
81931;BME280;71395;43.488;1.472;2023-07-09T16:18:39;100093.75;;;30.89;50.46
81931;BME280;71395;43.488;1.472;2023-07-09T16:21:04;100081.47;;;30.87;50.91
81931;BME280;71395;43.488;1.472;2023-07-09T16:23:31;100094.13;;;30.92;50.10
81931;BME280;71395;43.488;1.472;2023-07-09T16:25:56;100095.72;;;30.93;50.62
81931;BME280;71395;43.488;1.472;2023-07-09T16:28:22;100091.38;;;30.92;50.37
81931;BME280;71395;43.488;1.472;2023-07-09T16:30:48;100090.59;;;30.95;51.05
81931;BME280;71395;43.488;1.472;2023-07-09T16:33:15;100093.75;;;30.93;50.51
81931;BME280;71395;43.488;1.472;2023-07-09T16:35:41;100083.84;;;30.96;50.26
81931;BME280;71395;43.488;1.472;2023-07-09T16:38:10;100081.09;;;30.96;50.45
81931;BME280;71395;43.488;1.472;2023-07-09T16:40:36;100089.00;;;30.94;50.26
81931;BME280;71395;43.488;1.472;2023-07-09T16:43:14;100090.97;;;30.97;50.35
81931;BME280;71395;43.488;1.472;2023-07-09T16:45:40;100092.56;;;30.98;50.31
81931;BME280;71395;43.488;1.472;2023-07-09T16:48:18;100076.72;;;30.87;50.01
81931;BME280;71395;43.488;1.472;2023-07-09T16:50:44;100091.75;;;30.97;50.18
81931;BME280;71395;43.488;1.472;2023-07-09T16:53:17;100095.31;;;30.98;50.51
81931;BME280;71395;43.488;1.472;2023-07-09T16:55:43;100091.38;;;30.99;51.13
81931;BME280;71395;43.488;1.472;2023-07-09T16:58:29;100094.94;;;30.99;50.37
81931;BME280;71395;43.488;1.472;2023-07-09T17:00:55;100079.09;;;30.93;50.31
81931;BME280;71395;43.488;1.472;2023-07-09T17:03:20;100097.31;;;30.97;50.53
81931;BME280;71395;43.488;1.472;2023-07-09T17:05:46;100100.09;;;30.94;50.41
81931;BME280;71395;43.488;1.472;2023-07-09T17:08:12;100096.91;;;30.95;50.80
81931;BME280;71395;43.488;1.472;2023-07-09T17:10:39;100095.75;;;31.00;50.60
81931;BME280;71395;43.488;1.472;2023-07-09T17:13:05;100106.41;;;30.98;50.64
81931;BME280;71395;43.488;1.472;2023-07-09T17:15:41;100098.88;;;31.02;51.23
81931;BME280;71395;43.488;1.472;2023-07-09T17:18:25;100113.13;;;31.00;50.84
81931;BME280;71395;43.488;1.472;2023-07-09T17:20:54;100113.94;;;31.01;51.16
81931;BME280;71395;43.488;1.472;2023-07-09T17:23:21;100109.16;;;30.98;50.59
81931;BME280;71395;43.488;1.472;2023-07-09T17:25:48;100117.88;;;31.00;51.18
81931;BME280;71395;43.488;1.472;2023-07-09T17:28:24;100122.25;;;31.04;51.20
81931;BME280;71395;43.488;1.472;2023-07-09T17:30:51;100124.22;;;31.00;50.22
81931;BME280;71395;43.488;1.472;2023-07-09T17:33:18;100119.06;;;30.99;50.73
81931;BME280;71395;43.488;1.472;2023-07-09T17:35:44;100113.13;;;30.97;51.13
81931;BME280;71395;43.488;1.472;2023-07-09T17:38:20;100132.13;;;31.05;50.82
81931;BME280;71395;43.488;1.472;2023-07-09T17:40:47;100127.00;;;31.04;50.90
81931;BME280;71395;43.488;1.472;2023-07-09T17:43:18;100121.44;;;31.00;51.06
81931;BME280;71395;43.488;1.472;2023-07-09T17:45:44;100132.91;;;31.02;50.67
81931;BME280;71395;43.488;1.472;2023-07-09T17:48:17;100137.66;;;31.05;50.26
81931;BME280;71395;43.488;1.472;2023-07-09T17:50:43;100135.31;;;31.04;50.39
81931;BME280;71395;43.488;1.472;2023-07-09T17:53:32;100132.91;;;31.06;50.58
81931;BME280;71395;43.488;1.472;2023-07-09T17:55:58;100135.31;;;31.04;51.19
81931;BME280;71395;43.488;1.472;2023-07-09T18:00:52;100133.31;;;31.04;51.00
81931;BME280;71395;43.488;1.472;2023-07-09T18:03:20;100144.00;;;31.06;50.69
81931;BME280;71395;43.488;1.472;2023-07-09T18:05:48;100143.19;;;31.02;51.41
81931;BME280;71395;43.488;1.472;2023-07-09T18:08:13;100147.97;;;31.05;51.11
81931;BME280;71395;43.488;1.472;2023-07-09T18:10:43;100143.19;;;31.02;50.56
81931;BME280;71395;43.488;1.472;2023-07-09T18:13:12;100122.63;;;30.88;50.59
81931;BME280;71395;43.488;1.472;2023-07-09T18:15:39;100153.09;;;31.06;50.94
81931;BME280;71395;43.488;1.472;2023-07-09T18:18:05;100158.25;;;31.04;50.64
81931;BME280;71395;43.488;1.472;2023-07-09T18:20:32;100150.31;;;31.03;51.34
81931;BME280;71395;43.488;1.472;2023-07-09T18:22:58;100166.94;;;31.06;51.50
81931;BME280;71395;43.488;1.472;2023-07-09T18:25:25;100170.50;;;31.07;50.61
81931;BME280;71395;43.488;1.472;2023-07-09T18:27:55;100170.50;;;31.07;50.21
81931;BME280;71395;43.488;1.472;2023-07-09T18:30:26;100167.72;;;31.07;51.10
81931;BME280;71395;43.488;1.472;2023-07-09T18:32:55;100157.84;;;30.99;51.20
81931;BME280;71395;43.488;1.472;2023-07-09T18:35:29;100170.50;;;31.07;50.46
81931;BME280;71395;43.488;1.472;2023-07-09T18:37:57;100180.41;;;31.04;50.49
81931;BME280;71395;43.488;1.472;2023-07-09T18:40:24;100176.84;;;31.04;50.28
81931;BME280;71395;43.488;1.472;2023-07-09T18:42:50;100174.84;;;31.08;50.91
81931;BME280;71395;43.488;1.472;2023-07-09T18:45:18;100183.97;;;31.08;51.21
81931;BME280;71395;43.488;1.472;2023-07-09T18:47:45;100182.78;;;31.06;51.07
81931;BME280;71395;43.488;1.472;2023-07-09T18:50:16;100178.81;;;31.07;50.72
81931;BME280;71395;43.488;1.472;2023-07-09T18:52:42;100168.53;;;31.04;50.36
81931;BME280;71395;43.488;1.472;2023-07-09T18:55:28;100187.13;;;31.10;51.03
81931;BME280;71395;43.488;1.472;2023-07-09T18:57:54;100173.66;;;31.02;50.79
81931;BME280;71395;43.488;1.472;2023-07-09T19:00:21;100185.94;;;31.08;50.42
81931;BME280;71395;43.488;1.472;2023-07-09T19:02:50;100177.22;;;31.02;51.02
81931;BME280;71395;43.488;1.472;2023-07-09T19:05:22;100185.94;;;31.08;50.83
81931;BME280;71395;43.488;1.472;2023-07-09T19:07:50;100201.38;;;31.09;50.97
81931;BME280;71395;43.488;1.472;2023-07-09T19:10:20;100199.41;;;31.09;50.25
81931;BME280;71395;43.488;1.472;2023-07-09T19:12:47;100196.22;;;31.07;50.88
81931;BME280;71395;43.488;1.472;2023-07-09T19:15:13;100204.16;;;31.09;50.73
81931;BME280;71395;43.488;1.472;2023-07-09T19:17:39;100213.63;;;31.08;50.83
81931;BME280;71395;43.488;1.472;2023-07-09T19:20:34;100223.13;;;31.07;50.44
81931;BME280;71395;43.488;1.472;2023-07-09T19:23:00;100214.44;;;31.05;50.80
81931;BME280;71395;43.488;1.472;2023-07-09T19:25:27;100207.31;;;31.04;50.79
81931;BME280;71395;43.488;1.472;2023-07-09T19:27:53;100214.44;;;31.05;51.06
81931;BME280;71395;43.488;1.472;2023-07-09T19:30:20;100213.22;;;31.02;51.14
81931;BME280;71395;43.488;1.472;2023-07-09T19:32:57;100224.31;;;31.06;50.28
81931;BME280;71395;43.488;1.472;2023-07-09T19:35:25;100231.84;;;31.05;50.53
81931;BME280;71395;43.488;1.472;2023-07-09T19:37:52;100221.53;;;30.99;50.72
81931;BME280;71395;43.488;1.472;2023-07-09T19:40:21;100236.19;;;31.06;50.16
81931;BME280;71395;43.488;1.472;2023-07-09T19:42:48;100237.38;;;31.05;51.15
81931;BME280;71395;43.488;1.472;2023-07-09T19:45:23;100236.16;;;31.03;50.86
81931;BME280;71395;43.488;1.472;2023-07-09T19:47:51;100243.69;;;31.06;50.53
81931;BME280;71395;43.488;1.472;2023-07-09T19:50:31;100243.69;;;31.06;50.76
81931;BME280;71395;43.488;1.472;2023-07-09T19:52:58;100250.44;;;31.05;50.79
81931;BME280;71395;43.488;1.472;2023-07-09T19:55:29;100245.66;;;30.98;50.39
81931;BME280;71395;43.488;1.472;2023-07-09T19:57:59;100248.44;;;30.98;50.59
81931;BME280;71395;43.488;1.472;2023-07-09T20:00:27;100236.53;;;30.91;51.04
81931;BME280;71395;43.488;1.472;2023-07-09T20:02:54;100271.78;;;31.04;50.27
81931;BME280;71395;43.488;1.472;2023-07-09T20:05:25;100262.69;;;31.04;51.36
81931;BME280;71395;43.488;1.472;2023-07-09T20:07:58;100263.44;;;30.97;50.80
81931;BME280;71395;43.488;1.472;2023-07-09T20:10:25;100271.00;;;31.04;50.68
81931;BME280;71395;43.488;1.472;2023-07-09T20:12:53;100269.41;;;30.99;50.72
81931;BME280;71395;43.488;1.472;2023-07-09T20:15:23;100279.31;;;31.04;50.39
81931;BME280;71395;43.488;1.472;2023-07-09T20:17:54;100284.84;;;31.04;50.17
81931;BME280;71395;43.488;1.472;2023-07-09T20:20:20;100287.63;;;31.04;50.67
81931;BME280;71395;43.488;1.472;2023-07-09T20:22:47;100299.47;;;31.01;51.03
81931;BME280;71395;43.488;1.472;2023-07-09T20:25:24;100281.25;;;30.96;50.87
81931;BME280;71395;43.488;1.472;2023-07-09T20:27:51;100299.84;;;31.03;50.36
81931;BME280;71395;43.488;1.472;2023-07-09T20:30:18;100302.63;;;31.03;51.16
81931;BME280;71395;43.488;1.472;2023-07-09T20:32:45;100303.81;;;31.02;50.30
81931;BME280;71395;43.488;1.472;2023-07-09T20:35:22;100304.59;;;30.99;51.10
81931;BME280;71395;43.488;1.472;2023-07-09T20:37:50;100317.66;;;31.02;51.22
81931;BME280;71395;43.488;1.472;2023-07-09T20:40:19;100308.56;;;31.01;50.55
81931;BME280;71395;43.488;1.472;2023-07-09T20:42:53;100314.91;;;30.98;50.38
81931;BME280;71395;43.488;1.472;2023-07-09T20:45:23;100315.69;;;31.02;50.75
81931;BME280;71395;43.488;1.472;2023-07-09T20:47:52;100321.22;;;30.99;50.72
81931;BME280;71395;43.488;1.472;2023-07-09T20:50:19;100331.50;;;31.02;50.26
81931;BME280;71395;43.488;1.472;2023-07-09T20:52:46;100323.56;;;30.97;50.18
81931;BME280;71395;43.488;1.472;2023-07-09T20:55:14;100331.50;;;31.02;50.33
81931;BME280;71395;43.488;1.472;2023-07-09T20:57:41;100307.72;;;30.90;50.38
81931;BME280;71395;43.488;1.472;2023-07-09T21:00:21;100320.38;;;30.91;50.87
81931;BME280;71395;43.488;1.472;2023-07-09T21:02:48;100325.94;;;30.95;50.46
81931;BME280;71395;43.488;1.472;2023-07-09T21:05:16;100321.19;;;30.95;50.68
81931;BME280;71395;43.488;1.472;2023-07-09T21:07:47;100333.88;;;31.00;50.19
81931;BME280;71395;43.488;1.472;2023-07-09T21:10:23;100341.75;;;30.98;50.96
81931;BME280;71395;43.488;1.472;2023-07-09T21:12:49;100340.59;;;30.99;50.46
81931;BME280;71395;43.488;1.472;2023-07-09T21:15:28;100348.53;;;31.00;50.11
81931;BME280;71395;43.488;1.472;2023-07-09T21:17:55;100354.47;;;30.99;51.22
81931;BME280;71395;43.488;1.472;2023-07-09T21:20:22;100348.50;;;30.97;50.77
81931;BME280;71395;43.488;1.472;2023-07-09T21:22:47;100352.06;;;30.97;50.50
81931;BME280;71395;43.488;1.472;2023-07-09T21:25:21;100343.72;;;30.90;50.33
81931;BME280;71395;43.488;1.472;2023-07-09T21:27:48;100352.06;;;30.97;51.04
81931;BME280;71395;43.488;1.472;2023-07-09T21:30:14;100356.00;;;30.96;50.74
81931;BME280;71395;43.488;1.472;2023-07-09T21:32:40;100350.88;;;30.95;50.90
81931;BME280;71395;43.488;1.472;2023-07-09T21:35:32;100352.44;;;30.96;50.61
81931;BME280;71395;43.488;1.472;2023-07-09T21:37:58;100357.97;;;30.92;50.62
81931;BME280;71395;43.488;1.472;2023-07-09T21:40:31;100366.28;;;30.96;50.27
81931;BME280;71395;43.488;1.472;2023-07-09T21:43:00;100357.56;;;30.90;50.85
81931;BME280;71395;43.488;1.472;2023-07-09T21:45:28;100368.28;;;30.95;50.79
81931;BME280;71395;43.488;1.472;2023-07-09T21:47:57;100360.72;;;30.92;50.48
81931;BME280;71395;43.488;1.472;2023-07-09T21:50:23;100357.97;;;30.88;50.44
81931;BME280;71395;43.488;1.472;2023-07-09T21:52:49;100355.94;;;30.82;50.71
81931;BME280;71395;43.488;1.472;2023-07-09T21:55:17;100365.84;;;30.86;50.81
81931;BME280;71395;43.488;1.472;2023-07-09T21:57:44;100371.81;;;30.88;50.86
81931;BME280;71395;43.488;1.472;2023-07-09T22:00:14;100367.03;;;30.85;51.28
81931;BME280;71395;43.488;1.472;2023-07-09T22:02:40;100389.22;;;30.93;50.46
81931;BME280;71395;43.488;1.472;2023-07-09T22:05:27;100389.22;;;30.93;50.08
81931;BME280;71395;43.488;1.472;2023-07-09T22:07:56;100390.00;;;30.89;50.24
81931;BME280;71395;43.488;1.472;2023-07-09T22:10:36;100394.75;;;30.93;50.41
81931;BME280;71395;43.488;1.472;2023-07-09T22:13:03;100397.13;;;30.91;50.87
81931;BME280;71395;43.488;1.472;2023-07-09T22:15:39;100386.00;;;30.83;51.28
81931;BME280;71395;43.488;1.472;2023-07-09T22:18:06;100394.72;;;30.85;50.92
81931;BME280;71395;43.488;1.472;2023-07-09T22:20:35;100406.22;;;30.91;50.52
81931;BME280;71395;43.488;1.472;2023-07-09T22:23:00;100401.84;;;30.86;50.81
81931;BME280;71395;43.488;1.472;2023-07-09T22:25:30;100401.88;;;30.90;50.39
81931;BME280;71395;43.488;1.472;2023-07-09T22:27:57;100409.38;;;30.89;50.86
81931;BME280;71395;43.488;1.472;2023-07-09T22:30:28;100400.25;;;30.85;50.22
81931;BME280;71395;43.488;1.472;2023-07-09T22:32:56;100410.56;;;30.88;50.71
81931;BME280;71395;43.488;1.472;2023-07-09T22:35:28;100406.19;;;30.87;50.73
81931;BME280;71395;43.488;1.472;2023-07-09T22:37:56;100410.13;;;30.86;51.01
81931;BME280;71395;43.488;1.472;2023-07-09T22:40:25;100410.56;;;30.88;51.16
81931;BME280;71395;43.488;1.472;2023-07-09T22:42:52;100408.97;;;30.84;50.61
81931;BME280;71395;43.488;1.472;2023-07-09T22:45:20;100401.00;;;30.82;50.44
81931;BME280;71395;43.488;1.472;2023-07-09T22:47:49;100398.22;;;30.75;50.38
81931;BME280;71395;43.488;1.472;2023-07-09T22:50:18;100399.44;;;30.81;50.42
81931;BME280;71395;43.488;1.472;2023-07-09T22:52:45;100393.50;;;30.83;50.72
81931;BME280;71395;43.488;1.472;2023-07-09T22:55:32;100395.47;;;30.82;50.23
81931;BME280;71395;43.488;1.472;2023-07-09T22:57:59;100406.97;;;30.84;50.83
81931;BME280;71395;43.488;1.472;2023-07-09T23:00:27;100398.66;;;30.84;50.45
81931;BME280;71395;43.488;1.472;2023-07-09T23:02:53;100409.75;;;30.84;50.79
81931;BME280;71395;43.488;1.472;2023-07-09T23:05:20;100404.19;;;30.81;51.16
81931;BME280;71395;43.488;1.472;2023-07-09T23:07:46;100410.09;;;30.83;50.49
81931;BME280;71395;43.488;1.472;2023-07-09T23:10:12;100408.91;;;30.80;50.61
81931;BME280;71395;43.488;1.472;2023-07-09T23:12:38;100402.19;;;30.81;50.89
81931;BME280;71395;43.488;1.472;2023-07-09T23:15:21;100405.41;;;30.83;50.30
81931;BME280;71395;43.488;1.472;2023-07-09T23:17:52;100406.16;;;30.80;50.15
81931;BME280;71395;43.488;1.472;2023-07-09T23:20:20;100409.69;;;30.77;50.66
81931;BME280;71395;43.488;1.472;2023-07-09T23:22:45;100399.00;;;30.76;50.78
81931;BME280;71395;43.488;1.472;2023-07-09T23:25:12;100397.03;;;30.76;50.71
81931;BME280;71395;43.488;1.472;2023-07-09T23:27:39;100399.03;;;30.79;50.52
81931;BME280;71395;43.488;1.472;2023-07-09T23:30:21;100400.22;;;30.78;50.69
81931;BME280;71395;43.488;1.472;2023-07-09T23:32:49;100406.53;;;30.79;50.39
81931;BME280;71395;43.488;1.472;2023-07-09T23:35:17;100407.69;;;30.78;50.71
81931;BME280;71395;43.488;1.472;2023-07-09T23:37:45;100401.81;;;30.79;50.98
81931;BME280;71395;43.488;1.472;2023-07-09T23:40:11;100400.22;;;30.78;50.78
81931;BME280;71395;43.488;1.472;2023-07-09T23:42:37;100389.91;;;30.75;50.42
81931;BME280;71395;43.488;1.472;2023-07-09T23:45:04;100394.69;;;30.78;50.35
81931;BME280;71395;43.488;1.472;2023-07-09T23:47:30;100403.00;;;30.78;49.91